Time;durP1;ratioP1;P1;durP2;ratioP2;P2;SDS_P1;SDS_P2;PMS_P1;PMS_P2;Temp;Humidity;BMP_temperature;BMP_pressure;BME280_temperature;BME280_humidity;BME280_pressure;Samples;Min_cycle;Max_cycle;Signal;HPM_P1;HPM_P2
2023/04/30 06:58:51;;;;;;;5.47;2.10;;;16.60;1.00;;;;;;6212352;22;20297;-89
2023/04/30 07:01:17;;;;;;;5.38;2.10;;;15.60;1.00;;;;;;6186990;23;20661;-88
2023/04/30 07:03:43;;;;;;;6.45;2.22;;;15.70;1.00;;;;;;6181109;23;20261;-89
2023/04/30 07:06:09;;;;;;;5.60;2.28;;;16.20;1.00;;;;;;6157545;23;20546;-88
2023/04/30 07:08:39;;;;;;;6.47;2.40;;;17.90;1.00;;;;;;6158614;23;20169;-90
2023/04/30 07:11:05;;;;;;;7.97;2.40;;;17.20;1.00;;;;;;6159283;23;20152;-90
2023/04/30 07:13:31;;;;;;;5.90;2.40;;;14.90;1.00;;;;;;6158039;23;20245;-90
2023/04/30 07:15:58;;;;;;;7.38;2.70;;;13.30;1.00;;;;;;6156455;23;20199;-89
2023/04/30 07:18:23;;;;;;;5.20;2.10;;;11.60;1.00;;;;;;6157850;23;20197;-90
2023/04/30 07:20:49;;;;;;;6.45;2.58;;;10.20;1.00;;;;;;6154189;23;20159;-90
2023/04/30 07:23:15;;;;;;;7.20;2.60;;;9.30;1.00;;;;;;6154991;23;20189;-90
2023/04/30 07:25:41;;;;;;;6.20;2.73;;;9.90;1.00;;;;;;6153571;23;20213;-89
2023/04/30 07:28:08;;;;;;;7.00;2.40;;;9.10;1.00;;;;;;6153311;23;20214;-89
2023/04/30 07:30:34;;;;;;;6.63;2.50;;;9.00;1.00;;;;;;6154460;23;20159;-89
2023/04/30 07:32:59;;;;;;;7.93;2.73;;;8.70;1.00;;;;;;6154538;23;20193;-89
2023/04/30 07:35:25;;;;;;;6.97;2.47;;;8.80;1.00;;;;;;6156739;23;20209;-90
2023/04/30 07:37:53;;;;;;;9.13;3.03;;;9.00;1.00;;;;;;6160051;23;20186;-90
2023/04/30 07:40:22;;;;;;;9.67;2.47;;;9.10;1.00;;;;;;6159020;23;20159;-91
2023/04/30 07:42:54;;;;;;;6.53;2.73;;;9.00;1.00;;;;;;6183409;23;20254;-90
2023/04/30 07:45:21;;;;;;;7.67;2.80;;;8.70;1.00;;;;;;6133552;23;20163;-91
2023/04/30 07:47:47;;;;;;;6.60;2.53;;;8.80;1.00;;;;;;6133580;23;20155;-90
2023/04/30 07:50:13;;;;;;;8.13;2.80;;;8.70;1.00;;;;;;6153271;23;20154;-91
2023/04/30 07:52:40;;;;;;;9.13;3.87;;;8.40;1.00;;;;;;6149154;23;20658;-87
2023/04/30 07:55:06;;;;;;;5.80;2.27;;;8.30;1.00;;;;;;6148003;23;20170;-89
2023/04/30 07:57:31;;;;;;;6.90;2.40;;;8.50;1.00;;;;;;6148753;23;20179;-87
2023/04/30 07:59:57;;;;;;;7.53;2.33;;;8.50;1.00;;;;;;6148915;23;20182;-90
2023/04/30 08:02:22;;;;;;;5.60;2.80;;;8.40;1.00;;;;;;6153749;23;20179;-91
2023/04/30 08:04:48;;;;;;;7.63;3.00;;;8.50;1.00;;;;;;6150062;23;20159;-89
2023/04/30 08:07:16;;;;;;;7.73;3.00;;;8.60;1.00;;;;;;6146412;23;20454;-89
2023/04/30 08:09:42;;;;;;;6.17;3.07;;;9.00;1.00;;;;;;6146983;23;20205;-89
2023/04/30 08:12:09;;;;;;;11.00;2.60;;;8.50;1.00;;;;;;6148559;23;20190;-91
2023/04/30 08:14:34;;;;;;;8.27;2.37;;;8.50;1.00;;;;;;6149347;23;20177;-90
2023/04/30 08:17:01;;;;;;;6.27;2.60;;;8.70;1.00;;;;;;6149432;23;20681;-90
2023/04/30 08:19:27;;;;;;;8.83;2.67;;;8.80;1.00;;;;;;6150511;23;20182;-90
2023/04/30 08:21:52;;;;;;;9.83;3.20;;;8.80;1.00;;;;;;6152802;23;20155;-88
2023/04/30 08:24:18;;;;;;;6.87;2.40;;;9.50;1.00;;;;;;6149707;23;20165;-88
2023/04/30 08:26:43;;;;;;;7.13;2.40;;;8.80;1.00;;;;;;6148527;23;20151;-89
2023/04/30 08:29:09;;;;;;;8.43;2.70;;;8.90;1.00;;;;;;6149245;23;20214;-90
2023/04/30 08:31:35;;;;;;;7.07;2.50;;;8.90;1.00;;;;;;6151154;23;20163;-89
2023/04/30 08:34:01;;;;;;;8.10;2.63;;;8.30;1.00;;;;;;6151308;23;20226;-88
2023/04/30 08:36:26;;;;;;;7.73;2.43;;;8.90;1.00;;;;;;6151077;23;20163;-90
2023/04/30 08:38:53;;;;;;;7.30;2.70;;;8.70;1.00;;;;;;6150495;23;20894;-88
2023/04/30 08:41:25;;;;;;;6.67;2.60;;;8.60;1.00;;;;;;6182500;23;20186;-87
2023/04/30 08:43:52;;;;;;;7.57;2.60;;;9.40;1.00;;;;;;6152615;23;20298;-89
2023/04/30 08:46:22;;;;;;;8.50;2.40;;;9.10;1.00;;;;;;6152814;23;20580;-89
2023/04/30 08:48:47;;;;;;;8.10;2.93;;;9.30;1.00;;;;;;6151927;23;20163;-89
2023/04/30 08:51:13;;;;;;;4.77;2.10;;;9.00;1.00;;;;;;6150480;23;20189;-89
2023/04/30 08:53:40;;;;;;;5.93;2.50;;;9.10;1.00;;;;;;6149650;23;20182;-87
2023/04/30 08:56:09;;;;;;;6.83;2.70;;;9.10;1.00;;;;;;6149878;23;20163;-89
2023/04/30 08:58:35;;;;;;;8.53;2.87;;;9.30;1.00;;;;;;6150745;23;20174;-88
2023/04/30 09:01:01;;;;;;;4.97;2.70;;;9.30;1.00;;;;;;6150587;23;20194;-89
2023/04/30 09:03:27;;;;;;;6.10;2.50;;;9.20;1.00;;;;;;6151183;23;20183;-89
2023/04/30 09:05:54;;;;;;;4.80;2.43;;;9.20;1.00;;;;;;6150802;23;20425;-89
2023/04/30 09:08:40;;;;;;;5.13;2.53;;;9.20;1.00;;;;;;6149508;23;20667;-89
2023/04/30 09:11:23;;;;;;;5.87;2.57;;;9.30;1.00;;;;;;6150409;23;20592;-90
2023/04/30 09:13:53;;;;;;;7.77;2.50;;;9.30;1.00;;;;;;6149258;23;20190;-86
2023/04/30 09:16:20;;;;;;;5.40;2.17;;;9.40;1.00;;;;;;6149843;23;20150;-88
2023/04/30 09:18:46;;;;;;;9.47;2.37;;;9.40;1.00;;;;;;6149470;23;20183;-88
2023/04/30 09:21:12;;;;;;;10.20;2.73;;;9.40;1.00;;;;;;6150083;23;20246;-90
2023/04/30 09:24:00;;;;;;;6.73;2.70;;;9.60;1.00;;;;;;6150152;23;20229;-89
2023/04/30 09:26:30;;;;;;;6.13;2.37;;;9.60;1.00;;;;;;6150735;23;20147;-91
2023/04/30 09:28:57;;;;;;;6.00;2.30;;;9.80;1.00;;;;;;6147349;23;20584;-88
2023/04/30 09:31:25;;;;;;;6.03;2.40;;;9.80;1.00;;;;;;6176451;23;20651;-91
2023/04/30 09:33:50;;;;;;;7.17;2.23;;;9.90;1.00;;;;;;6151945;23;20241;-91
2023/04/30 09:36:16;;;;;;;6.87;2.53;;;10.20;1.00;;;;;;6152484;23;20600;-91
2023/04/30 09:38:51;;;;;;;4.50;2.20;;;10.70;1.00;;;;;;6151095;23;20191;-91
2023/04/30 09:41:25;;;;;;;5.40;2.17;;;10.00;1.00;;;;;;6151557;23;20147;-90
2023/04/30 09:43:51;;;;;;;4.37;2.37;;;10.50;1.00;;;;;;6151246;23;20175;-90
2023/04/30 09:46:21;;;;;;;5.03;2.00;;;10.40;1.00;;;;;;6152903;23;20166;-91
2023/04/30 09:48:55;;;;;;;5.83;2.37;;;10.50;1.00;;;;;;6150373;23;20155;-89
2023/04/30 09:51:21;;;;;;;5.13;2.33;;;10.60;1.00;;;;;;6145292;23;20155;-89
2023/04/30 09:53:47;;;;;;;8.30;2.77;;;10.30;1.00;;;;;;6145261;23;20265;-90
2023/04/30 09:56:18;;;;;;;8.37;2.50;;;10.40;1.00;;;;;;6146833;23;20166;-90
2023/04/30 09:58:49;;;;;;;4.33;2.00;;;10.30;1.00;;;;;;6144363;23;20183;-89
2023/04/30 10:01:15;;;;;;;4.33;2.10;;;10.30;1.00;;;;;;6147036;23;20171;-88
2023/04/30 10:03:42;;;;;;;4.87;2.30;;;10.50;1.00;;;;;;6147907;23;20175;-90
2023/04/30 10:06:08;;;;;;;5.27;2.40;;;10.60;1.00;;;;;;6149200;23;20568;-89
2023/04/30 10:08:41;;;;;;;4.30;2.27;;;10.70;1.00;;;;;;6155367;23;20209;-90
2023/04/30 10:11:08;;;;;;;4.27;2.20;;;10.70;1.00;;;;;;6157471;23;20166;-90
2023/04/30 10:13:44;;;;;;;4.33;2.10;;;10.80;1.00;;;;;;6156409;23;20193;-92
2023/04/30 10:16:28;;;;;;;5.60;2.30;;;11.20;1.00;;;;;;6160228;23;20238;-88
2023/04/30 10:18:57;;;;;;;4.93;2.40;;;10.40;1.00;;;;;;6152312;23;20174;-89
2023/04/30 10:21:25;;;;;;;4.60;2.20;;;10.60;1.00;;;;;;6151741;23;20163;-89
2023/04/30 10:23:53;;;;;;;8.37;2.43;;;10.80;1.00;;;;;;6152485;23;20744;-88
2023/04/30 10:26:19;;;;;;;4.57;2.20;;;10.60;1.00;;;;;;6152073;23;20167;-89
2023/04/30 10:28:47;;;;;;;6.23;2.20;;;10.70;1.00;;;;;;6178652;23;20157;-87
2023/04/30 10:31:14;;;;;;;4.13;2.50;;;10.80;1.00;;;;;;6151996;23;20251;-88
2023/04/30 10:34:13;;;;;;;6.40;2.20;;;10.90;1.00;;;;;;6150445;23;20436;-89
2023/04/30 10:36:43;;;;;;;6.50;2.50;;;11.00;1.00;;;;;;6150263;23;20171;-89
2023/04/30 10:39:11;;;;;;;4.80;2.77;;;11.20;1.00;;;;;;6175315;23;20155;-90
2023/04/30 10:41:37;;;;;;;4.00;2.20;;;11.00;1.00;;;;;;6149478;23;20217;-90
2023/04/30 10:44:06;;;;;;;5.40;2.30;;;10.90;1.00;;;;;;6150641;23;20159;-87
2023/04/30 10:46:33;;;;;;;4.53;2.20;;;11.00;1.00;;;;;;6151515;23;20155;-91
2023/04/30 10:48:59;;;;;;;5.53;2.40;;;10.90;1.00;;;;;;6151846;23;20618;-90
2023/04/30 10:51:57;;;;;;;5.47;2.40;;;11.00;1.00;;;;;;6153530;23;20155;-89
2023/04/30 10:54:27;;;;;;;5.38;2.00;;;11.10;1.00;;;;;;6156746;23;20760;-92
2023/04/30 10:57:07;;;;;;;5.60;2.43;;;11.10;1.00;;;;;;6181373;23;20612;-91
2023/04/30 10:59:33;;;;;;;6.87;1.93;;;11.60;1.00;;;;;;6153509;23;20185;-91
2023/04/30 11:02:08;;;;;;;3.23;1.77;;;11.20;1.00;;;;;;6153744;23;20175;-91
2023/04/30 11:05:10;;;;;;;5.27;2.10;;;11.10;1.00;;;;;;6154610;23;20166;-92
2023/04/30 11:07:37;;;;;;;4.70;2.40;;;11.40;1.00;;;;;;6159765;23;20221;-92
2023/04/30 11:10:08;;;;;;;6.20;2.30;;;11.40;1.00;;;;;;6156689;23;20229;-90
2023/04/30 11:12:40;;;;;;;4.13;2.27;;;11.40;1.00;;;;;;6154481;23;20189;-91
2023/04/30 11:15:12;;;;;;;4.50;2.20;;;11.30;1.00;;;;;;6155833;23;20151;-92
2023/04/30 11:17:38;;;;;;;5.87;2.40;;;11.70;1.00;;;;;;6155323;23;20183;-91
2023/04/30 11:20:04;;;;;;;3.63;1.87;;;11.50;1.00;;;;;;6154761;23;20161;-91
2023/04/30 11:23:06;;;;;;;5.63;2.20;;;11.50;1.00;;;;;;6154880;23;20645;-91
2023/04/30 11:25:44;;;;;;;7.10;3.10;;;12.10;1.00;;;;;;6154744;23;20150;-91
2023/04/30 11:28:25;;;;;;;5.32;3.10;;;12.50;1.00;;;;;;6179918;23;20214;-91
2023/04/30 11:31:08;;;;;;;6.13;2.40;;;12.30;1.00;;;;;;6157567;23;20247;-93
2023/04/30 11:33:40;;;;;;;5.85;2.30;;;11.60;1.00;;;;;;6155962;23;20240;-92
2023/04/30 11:36:06;;;;;;;4.73;2.30;;;11.70;1.00;;;;;;6155119;23;20189;-91
2023/04/30 11:38:35;;;;;;;4.83;2.30;;;11.70;1.00;;;;;;6156763;23;20183;-90
2023/04/30 11:41:02;;;;;;;5.07;2.28;;;12.30;1.00;;;;;;6155145;23;20155;-92
2023/04/30 11:43:29;;;;;;;6.13;2.37;;;11.90;1.00;;;;;;6155324;23;20174;-92
2023/04/30 11:46:04;;;;;;;5.38;2.80;;;12.40;1.00;;;;;;6155526;23;20155;-91
2023/04/30 11:48:38;;;;;;;5.75;2.53;;;11.90;1.00;;;;;;6156403;23;20163;-92
2023/04/30 11:51:23;;;;;;;6.65;2.20;;;11.90;1.00;;;;;;6154137;23;20520;-92
2023/04/30 11:53:52;;;;;;;2.55;1.75;;;12.50;1.00;;;;;;6154063;23;20186;-91
2023/04/30 11:56:23;;;;;;;3.28;2.10;;;12.00;1.00;;;;;;6155397;23;20234;-92
2023/04/30 11:58:51;;;;;;;5.60;2.45;;;12.60;1.00;;;;;;6155260;23;20190;-91
2023/04/30 12:01:17;;;;;;;4.03;2.20;;;12.30;1.00;;;;;;6155880;23;20175;-93
2023/04/30 12:03:47;;;;;;;4.43;2.33;;;12.70;1.00;;;;;;6157151;23;20179;-92
2023/04/30 12:06:23;;;;;;;4.60;1.90;;;12.10;1.00;;;;;;6158464;23;20151;-92
2023/04/30 12:08:53;;;;;;;5.40;2.30;;;12.60;1.00;;;;;;6155223;23;20170;-91
2023/04/30 12:11:30;;;;;;;7.85;2.42;;;12.90;1.00;;;;;;6153736;23;20553;-91
2023/04/30 12:14:36;;;;;;;;;;;;;;;;;;;;;
2023/04/30 12:17:35;;;;;;;5.70;2.45;;;12.40;1.00;;;;;;6164809;23;20273;-91
2023/04/30 12:20:00;;;;;;;5.50;2.30;;;12.90;1.00;;;;;;6057974;23;20187;-90
2023/04/30 12:22:31;;;;;;;4.32;2.08;;;12.80;1.00;;;;;;6159899;23;20175;-92
2023/04/30 12:25:03;;;;;;;5.80;2.05;;;12.50;1.00;;;;;;6153226;23;20162;-90
2023/04/30 12:27:30;;;;;;;5.03;2.40;;;13.00;1.00;;;;;;6153133;23;20571;-91
2023/04/30 12:29:56;;;;;;;4.93;2.08;;;12.60;1.00;;;;;;6154715;23;20245;-90
2023/04/30 12:32:22;;;;;;;5.20;2.00;;;13.70;1.00;;;;;;6155106;23;20217;-90
2023/04/30 12:34:47;;;;;;;4.40;2.20;;;13.30;1.00;;;;;;6153853;23;20236;-90
2023/04/30 12:37:16;;;;;;;4.20;2.05;;;13.40;1.00;;;;;;6154205;23;20187;-91
2023/04/30 12:39:42;;;;;;;5.38;2.00;;;12.90;1.00;;;;;;6154044;23;20165;-90
2023/04/30 12:42:10;;;;;;;4.63;1.83;;;12.90;1.00;;;;;;6154306;23;20187;-91
2023/04/30 12:44:44;;;;;;;3.40;2.17;;;13.60;1.00;;;;;;6155182;23;20155;-90
2023/04/30 12:47:39;;;;;;;3.67;2.03;;;13.10;1.00;;;;;;6155329;23;20185;-90
2023/04/30 12:50:11;;;;;;;3.72;1.83;;;12.80;1.00;;;;;;6158167;23;20155;-90
2023/04/30 12:53:14;;;;;;;4.28;1.65;;;12.80;1.00;;;;;;6153050;23;20182;-88
2023/04/30 12:55:41;;;;;;;3.70;1.92;;;12.90;1.00;;;;;;6158734;23;20267;-91
2023/04/30 12:58:13;;;;;;;5.05;2.28;;;12.90;1.00;;;;;;6155082;23;20187;-89
2023/04/30 13:00:50;;;;;;;5.07;1.90;;;13.00;1.00;;;;;;6155825;23;20171;-91
2023/04/30 13:03:19;;;;;;;5.25;2.17;;;13.10;1.00;;;;;;6155390;23;20232;-87
2023/04/30 13:05:57;;;;;;;5.15;2.10;;;13.20;1.00;;;;;;6159195;23;20157;-89
2023/04/30 13:08:23;;;;;;;4.68;2.10;;;13.80;1.00;;;;;;6155599;23;20158;-91
2023/04/30 13:10:49;;;;;;;6.05;2.60;;;12.90;1.00;;;;;;6160009;23;20158;-90
2023/04/30 13:13:17;;;;;;;3.53;2.20;;;12.90;1.00;;;;;;6156768;23;20183;-91
2023/04/30 13:16:05;;;;;;;4.05;2.05;;;13.10;1.00;;;;;;6161417;23;20202;-90
2023/04/30 13:18:42;;;;;;;5.05;2.10;;;12.80;1.00;;;;;;6155942;23;20171;-89
2023/04/30 13:21:09;;;;;;;3.58;2.05;;;12.90;1.00;;;;;;6152591;23;20151;-90
2023/04/30 13:23:35;;;;;;;3.13;2.00;;;12.90;1.00;;;;;;6153364;23;20698;-90
2023/04/30 13:26:01;;;;;;;3.55;2.03;;;12.90;1.00;;;;;;6151577;23;20159;-89
2023/04/30 13:28:26;;;;;;;6.00;2.28;;;13.00;1.00;;;;;;6151396;23;20151;-90
2023/04/30 13:30:52;;;;;;;3.88;1.77;;;13.10;1.00;;;;;;6150777;23;20249;-89
2023/04/30 13:33:18;;;;;;;3.53;1.75;;;13.10;1.00;;;;;;6151169;23;20193;-89
2023/04/30 13:35:45;;;;;;;4.45;2.10;;;13.20;1.00;;;;;;6151167;23;20206;-88
2023/04/30 13:38:11;;;;;;;79.25;5.75;;;13.30;1.00;;;;;;6147462;23;20198;-89
2023/04/30 13:43:12;;;;;;;4.85;1.75;;;13.20;1.00;;;;;;6166756;23;20197;-90
2023/04/30 13:45:38;;;;;;;4.95;2.00;;;13.00;1.00;;;;;;6149603;23;20167;-91
2023/04/30 13:48:03;;;;;;;4.35;2.10;;;13.80;1.00;;;;;;6148350;23;20169;-91
2023/04/30 13:50:29;;;;;;;4.65;1.95;;;13.30;1.00;;;;;;6149972;23;20189;-91
2023/04/30 13:52:58;;;;;;;2.80;1.83;;;13.40;1.00;;;;;;6153310;23;20163;-90
2023/04/30 13:55:23;;;;;;;4.93;2.00;;;13.50;1.00;;;;;;6151172;23;20159;-90
2023/04/30 13:57:50;;;;;;;5.63;1.70;;;14.00;1.00;;;;;;6151756;23;20270;-90
2023/04/30 14:00:15;;;;;;;3.50;1.60;;;13.90;1.00;;;;;;6152050;23;20167;-90
2023/04/30 14:02:41;;;;;;;2.97;1.77;;;13.40;1.00;;;;;;6151066;23;20630;-90
2023/04/30 14:05:07;;;;;;;3.95;1.80;;;13.50;1.00;;;;;;6149891;23;20154;-90
2023/04/30 14:07:33;;;;;;;5.57;2.33;;;13.40;1.00;;;;;;6152394;23;20206;-90
2023/04/30 14:09:58;;;;;;;5.15;2.13;;;13.50;1.00;;;;;;6178414;23;20213;-89
2023/04/30 14:12:24;;;;;;;4.82;2.00;;;14.40;1.00;;;;;;6152638;23;20187;-90
2023/04/30 14:14:50;;;;;;;2.95;1.65;;;13.60;1.00;;;;;;6151316;23;20173;-90
2023/04/30 14:17:15;;;;;;;5.50;2.33;;;13.80;1.00;;;;;;6152982;23;20210;-90
2023/04/30 14:19:41;;;;;;;3.80;2.00;;;14.50;1.00;;;;;;6181559;23;20151;-90
2023/04/30 14:22:06;;;;;;;3.25;1.75;;;13.50;1.00;;;;;;6182677;23;20205;-90
2023/04/30 14:24:32;;;;;;;4.22;1.98;;;14.30;1.00;;;;;;6151601;23;20155;-90
2023/04/30 14:27:04;;;;;;;3.78;1.83;;;14.00;1.00;;;;;;6151069;23;20210;-91
2023/04/30 14:29:30;;;;;;;7.75;2.03;;;13.80;1.00;;;;;;6149995;23;20622;-91
2023/04/30 14:32:00;;;;;;;4.75;1.73;;;14.70;1.00;;;;;;6152486;23;20179;-91
2023/04/30 14:34:26;;;;;;;4.13;1.92;;;14.00;1.00;;;;;;6177190;23;20140;-90
2023/04/30 14:36:52;;;;;;;4.78;1.92;;;14.40;1.00;;;;;;6151006;23;20155;-90
2023/04/30 14:39:26;;;;;;;3.95;1.90;;;14.00;1.00;;;;;;6151691;23;20159;-90
2023/04/30 14:41:52;;;;;;;4.93;2.13;;;13.80;1.00;;;;;;6151160;23;20768;-91
2023/04/30 14:44:18;;;;;;;3.35;1.73;;;13.70;1.00;;;;;;6151869;23;20254;-90
2023/04/30 14:46:44;;;;;;;3.35;1.60;;;13.80;1.00;;;;;;6148505;23;20514;-91
2023/04/30 14:49:10;;;;;;;3.92;2.00;;;13.90;1.00;;;;;;6151174;23;20500;-90
2023/04/30 14:51:35;;;;;;;3.83;2.08;;;14.00;1.00;;;;;;6154252;23;20175;-91
2023/04/30 14:54:07;;;;;;;4.63;2.25;;;14.90;1.00;;;;;;6155617;23;20169;-91
2023/04/30 14:56:33;;;;;;;4.07;1.67;;;14.20;1.00;;;;;;6154564;23;20151;-90
2023/04/30 14:58:59;;;;;;;3.97;1.95;;;14.20;1.00;;;;;;6157238;23;20186;-90
2023/04/30 15:01:25;;;;;;;5.00;2.20;;;14.20;1.00;;;;;;6157526;23;20182;-90
2023/04/30 15:03:51;;;;;;;5.93;2.50;;;14.10;1.00;;;;;;6158798;23;20159;-91
2023/04/30 15:06:33;;;;;;;3.53;1.88;;;14.20;1.00;;;;;;6159689;23;20242;-91
2023/04/30 15:09:00;;;;;;;3.22;1.88;;;14.20;1.00;;;;;;6159438;23;20155;-90
2023/04/30 15:11:25;;;;;;;4.53;1.90;;;14.30;1.00;;;;;;6185481;23;20178;-90
2023/04/30 15:13:52;;;;;;;4.43;2.10;;;15.10;1.00;;;;;;6159304;23;20154;-90
2023/04/30 15:16:18;;;;;;;4.85;2.45;;;15.30;1.00;;;;;;6159451;23;20186;-90
2023/04/30 15:18:44;;;;;;;3.92;1.75;;;14.40;1.00;;;;;;6159321;23;20190;-90
2023/04/30 15:21:09;;;;;;;3.45;2.22;;;14.40;1.00;;;;;;6159760;23;20232;-91
2023/04/30 15:23:35;;;;;;;5.05;1.75;;;14.90;1.00;;;;;;6159418;23;20190;-91
2023/04/30 15:26:02;;;;;;;3.30;1.70;;;14.50;1.00;;;;;;6159783;23;20155;-90
2023/04/30 15:28:28;;;;;;;4.95;1.85;;;14.40;1.00;;;;;;6159808;23;20163;-91
2023/04/30 15:30:53;;;;;;;5.15;1.80;;;14.30;1.00;;;;;;6159944;23;20649;-91
2023/04/30 15:33:19;;;;;;;5.65;1.90;;;15.10;1.00;;;;;;6159875;23;20167;-92
2023/04/30 15:35:47;;;;;;;4.65;1.70;;;14.40;1.00;;;;;;6160050;23;20242;-92
2023/04/30 15:38:13;;;;;;;2.83;1.65;;;14.40;1.00;;;;;;6134878;23;20191;-91
2023/04/30 15:40:39;;;;;;;4.30;2.20;;;14.70;1.00;;;;;;6157396;23;20587;-92
2023/04/30 15:43:05;;;;;;;4.72;2.13;;;14.50;1.00;;;;;;6156276;23;20171;-93
2023/04/30 15:45:32;;;;;;;5.13;2.08;;;14.80;1.00;;;;;;6155131;23;20278;-91
2023/04/30 15:47:59;;;;;;;3.60;1.95;;;14.60;1.00;;;;;;6154885;23;20169;-91
2023/04/30 15:50:26;;;;;;;3.67;1.80;;;14.60;1.00;;;;;;6153393;23;20238;-91
2023/04/30 15:52:54;;;;;;;3.38;1.75;;;14.50;1.00;;;;;;6153035;23;20159;-89
2023/04/30 15:55:22;;;;;;;3.65;1.90;;;15.30;1.00;;;;;;6177980;23;20498;-90
2023/04/30 15:57:48;;;;;;;4.10;1.98;;;14.90;1.00;;;;;;6152238;23;20307;-90
2023/04/30 16:00:14;;;;;;;4.13;2.10;;;15.00;1.00;;;;;;6178591;23;20151;-89
2023/04/30 16:02:40;;;;;;;3.15;1.75;;;14.30;1.00;;;;;;6151525;23;20183;-88
2023/04/30 16:05:06;;;;;;;3.03;1.63;;;14.30;1.00;;;;;;6152186;23;20229;-90
2023/04/30 16:07:33;;;;;;;4.03;1.70;;;14.30;1.00;;;;;;6151524;23;20792;-89
2023/04/30 16:10:00;;;;;;;3.55;1.58;;;14.20;1.00;;;;;;6178217;23;20161;-90
2023/04/30 16:12:26;;;;;;;3.63;1.65;;;15.00;1.00;;;;;;6151598;23;20178;-90
2023/04/30 16:14:52;;;;;;;3.42;1.88;;;14.10;1.00;;;;;;6151994;23;20574;-89
2023/04/30 16:17:18;;;;;;;3.13;1.90;;;14.00;1.00;;;;;;6152445;23;20214;-90
2023/04/30 16:19:44;;;;;;;4.22;1.90;;;14.00;1.00;;;;;;6152144;23;20151;-90
2023/04/30 16:22:10;;;;;;;3.35;1.60;;;13.90;1.00;;;;;;6152195;23;20546;-91
2023/04/30 16:24:36;;;;;;;3.10;1.80;;;13.70;1.00;;;;;;6152295;23;20159;-91
2023/04/30 16:27:02;;;;;;;6.93;1.58;;;13.80;1.00;;;;;;6153196;23;20613;-91
2023/04/30 16:29:27;;;;;;;3.45;1.58;;;13.80;1.00;;;;;;6153175;23;20162;-91
2023/04/30 16:32:01;;;;;;;6.75;1.98;;;14.60;1.00;;;;;;6152250;23;20183;-90
2023/04/30 16:34:27;;;;;;;5.63;1.60;;;13.80;1.00;;;;;;6151886;23;20166;-91
2023/04/30 16:36:52;;;;;;;1.88;1.20;;;13.80;1.00;;;;;;6151685;23;20946;-91
2023/04/30 16:39:18;;;;;;;3.20;1.50;;;14.20;1.00;;;;;;6154548;23;20492;-91
2023/04/30 16:41:46;;;;;;;2.42;1.40;;;13.60;1.00;;;;;;6127633;23;20872;-93
2023/04/30 16:44:13;;;;;;;4.03;1.40;;;13.60;1.00;;;;;;6154078;23;20274;-92
2023/04/30 16:46:38;;;;;;;3.05;1.60;;;13.70;1.00;;;;;;6153983;23;20159;-92
2023/04/30 16:49:04;;;;;;;2.70;1.23;;;13.70;1.00;;;;;;6153192;23;20922;-92
2023/04/30 16:51:32;;;;;;;2.13;1.30;;;13.60;1.00;;;;;;6152659;23;20249;-92
2023/04/30 16:53:57;;;;;;;2.50;1.42;;;13.50;1.00;;;;;;6154208;23;20652;-91
2023/04/30 16:56:24;;;;;;;3.33;1.60;;;14.30;1.00;;;;;;6154357;23;20159;-91
2023/04/30 16:58:50;;;;;;;2.97;1.60;;;13.40;1.00;;;;;;6152074;23;20209;-91
2023/04/30 17:01:16;;;;;;;2.70;1.55;;;13.30;1.00;;;;;;6153637;23;20262;-91
2023/04/30 17:03:41;;;;;;;3.03;1.50;;;14.10;1.00;;;;;;6153475;23;20499;-92
2023/04/30 17:06:08;;;;;;;3.80;1.42;;;13.70;1.00;;;;;;6153424;23;20159;-91
2023/04/30 17:08:44;;;;;;;1.88;1.23;;;13.10;1.00;;;;;;6153040;23;20205;-91
2023/04/30 17:11:10;;;;;;;2.42;1.42;;;13.10;1.00;;;;;;6152560;23;20197;-91
2023/04/30 17:13:36;;;;;;;2.92;1.77;;;13.00;1.00;;;;;;6151679;23;20194;-90
2023/04/30 17:16:31;;;;;;;3.15;1.77;;;13.40;1.00;;;;;;6151062;23;20594;-91
2023/04/30 17:19:06;;;;;;;2.95;1.48;;;13.00;1.00;;;;;;6144850;23;20190;-89
2023/04/30 17:21:35;;;;;;;3.03;1.77;;;13.50;1.00;;;;;;6144212;23;20241;-89
2023/04/30 17:24:01;;;;;;;4.07;1.73;;;13.30;1.00;;;;;;6179503;23;20154;-90
2023/04/30 17:26:30;;;;;;;2.90;1.60;;;12.70;1.00;;;;;;6178406;23;20150;-90
2023/04/30 17:28:59;;;;;;;2.55;1.95;;;13.40;1.00;;;;;;6178461;23;20922;-90
2023/04/30 17:31:28;;;;;;;3.55;1.73;;;12.70;1.00;;;;;;6191229;23;20192;-88
2023/04/30 17:34:47;;;;;;;2.78;1.63;;;12.50;1.00;;;;;;6210756;23;20165;-89
2023/04/30 17:40:56;;;;;;;4.45;1.73;;;12.30;1.00;;;;;;6186332;23;20177;-89
2023/04/30 18:00:13;;;;;;;5.95;1.70;;;11.30;1.00;;;;;;6236663;23;20137;-88
2023/04/30 18:02:40;;;;;;;3.47;1.40;;;11.70;1.00;;;;;;6210212;23;20629;-90
2023/04/30 18:05:06;;;;;;;4.88;1.75;;;12.30;1.00;;;;;;6211880;23;20149;-89
2023/04/30 18:07:32;;;;;;;3.10;1.53;;;11.40;1.00;;;;;;6211804;23;20162;-90
2023/04/30 18:09:58;;;;;;;3.13;1.55;;;12.30;1.00;;;;;;6211753;23;20162;-89
2023/04/30 18:12:28;;;;;;;4.82;2.00;;;12.00;1.00;;;;;;6210519;23;20192;-89
2023/04/30 18:14:54;;;;;;;3.87;1.60;;;11.80;1.00;;;;;;6211359;23;20154;-89
2023/04/30 18:17:20;;;;;;;3.63;1.70;;;11.70;1.00;;;;;;6210143;23;20181;-90
2023/04/30 18:20:01;;;;;;;3.37;1.77;;;11.60;1.00;;;;;;6209866;23;20252;-89
2023/04/30 18:22:27;;;;;;;4.17;2.17;;;10.60;1.00;;;;;;6206521;23;20657;-89
2023/04/30 18:24:53;;;;;;;4.90;2.03;;;10.60;1.00;;;;;;6207082;23;20201;-89
2023/04/30 18:27:19;;;;;;;4.20;1.83;;;10.70;1.00;;;;;;6209298;23;20166;-89
2023/04/30 18:29:45;;;;;;;4.47;1.90;;;11.00;1.00;;;;;;6209560;23;20182;-89
2023/04/30 18:32:11;;;;;;;4.47;2.03;;;10.60;1.00;;;;;;6207394;23;20186;-89
2023/04/30 18:34:39;;;;;;;2.63;1.80;;;10.40;1.00;;;;;;6210574;23;20178;-89
2023/04/30 18:37:04;;;;;;;2.07;1.37;;;11.10;1.00;;;;;;6208713;23;20661;-89
2023/04/30 18:39:30;;;;;;;2.83;1.60;;;10.80;1.00;;;;;;6209673;23;20190;-89
2023/04/30 18:41:56;;;;;;;5.57;2.10;;;10.90;1.00;;;;;;6208924;23;20182;-88
2023/04/30 18:44:30;;;;;;;4.83;1.90;;;10.30;1.00;;;;;;6206735;23;20265;-89
2023/04/30 18:47:13;;;;;;;4.53;2.00;;;10.20;1.00;;;;;;6209373;23;20153;-89
2023/04/30 18:49:39;;;;;;;3.20;1.90;;;10.10;1.00;;;;;;6209815;23;20639;-89
2023/04/30 18:52:04;;;;;;;3.97;1.90;;;10.30;1.00;;;;;;6209377;23;20185;-89
2023/04/30 18:54:30;;;;;;;4.87;2.17;;;9.60;1.00;;;;;;6208786;23;20593;-89
2023/04/30 18:56:55;;;;;;;4.57;2.10;;;9.90;1.00;;;;;;6210209;23;20158;-89
2023/04/30 18:59:21;;;;;;;3.77;2.10;;;10.10;1.00;;;;;;6210011;23;20170;-89
2023/04/30 19:01:50;;;;;;;4.63;1.93;;;9.10;1.00;;;;;;6209505;23;20253;-89
2023/04/30 19:04:15;;;;;;;5.27;2.30;;;9.90;1.00;;;;;;6211306;23;20174;-89
2023/04/30 19:06:42;;;;;;;5.97;2.20;;;8.10;1.00;;;;;;6210213;23;20165;-89
2023/04/30 19:09:08;;;;;;;5.13;2.37;;;9.10;1.00;;;;;;6210248;23;20158;-89
2023/04/30 19:11:34;;;;;;;4.40;2.40;;;9.00;1.00;;;;;;6209791;23;20196;-89
2023/04/30 19:14:00;;;;;;;4.77;2.50;;;9.90;1.00;;;;;;6210572;23;20591;-88
2023/04/30 19:16:26;;;;;;;3.40;2.00;;;9.60;1.00;;;;;;6210214;23;20162;-88
2023/04/30 19:18:51;;;;;;;5.57;2.30;;;9.50;1.00;;;;;;6210598;23;20256;-89
2023/04/30 19:21:18;;;;;;;2.83;1.70;;;9.50;1.00;;;;;;6209644;23;20269;-89
2023/04/30 19:23:44;;;;;;;3.43;2.17;;;8.50;1.00;;;;;;6210425;23;20186;-90
2023/04/30 19:26:09;;;;;;;4.10;2.27;;;8.50;1.00;;;;;;6210391;23;20158;-91
2023/04/30 19:28:35;;;;;;;4.67;2.30;;;8.50;1.00;;;;;;6210014;23;20549;-89
2023/04/30 19:31:02;;;;;;;2.37;1.83;;;8.40;1.00;;;;;;6210125;23;20270;-88
2023/04/30 19:33:32;;;;;;;4.50;2.23;;;8.60;1.00;;;;;;6209778;23;20162;-88
2023/04/30 19:35:57;;;;;;;5.57;2.20;;;8.30;1.00;;;;;;6209581;23;20162;-90
2023/04/30 19:38:23;;;;;;;3.23;2.23;;;8.20;1.00;;;;;;6209014;23;20194;-89
2023/04/30 19:40:51;;;;;;;3.83;2.37;;;8.20;1.00;;;;;;6209239;23;20182;-90
2023/04/30 19:43:23;;;;;;;3.63;2.07;;;8.20;1.00;;;;;;6206500;23;20162;-90
2023/04/30 19:45:51;;;;;;;4.53;2.17;;;8.30;1.00;;;;;;6209299;23;20150;-89
2023/04/30 19:48:17;;;;;;;5.10;2.40;;;8.20;1.00;;;;;;6210017;23;20173;-90
2023/04/30 19:50:44;;;;;;;6.07;3.00;;;8.10;1.00;;;;;;6209211;23;20186;-89
2023/04/30 19:53:14;;;;;;;4.50;2.60;;;8.00;1.00;;;;;;6209676;23;20510;-90
2023/04/30 19:55:40;;;;;;;3.67;2.90;;;8.00;1.00;;;;;;6209141;23;20193;-90
2023/04/30 19:58:07;;;;;;;5.47;2.67;;;7.90;1.00;;;;;;6210683;23;20201;-90
2023/04/30 20:00:40;;;;;;;3.53;2.60;;;7.80;1.00;;;;;;6208740;23;20154;-90
2023/04/30 20:03:06;;;;;;;4.70;2.80;;;7.90;1.00;;;;;;6209322;23;20150;-90
2023/04/30 20:05:39;;;;;;;6.60;2.83;;;7.90;1.00;;;;;;6208698;23;20158;-90
2023/04/30 20:08:07;;;;;;;4.97;3.07;;;7.80;1.00;;;;;;6208739;23;20587;-88
2023/04/30 20:10:35;;;;;;;4.87;3.30;;;7.80;1.00;;;;;;6210170;23;20177;-89
2023/04/30 20:13:04;;;;;;;5.67;3.40;;;8.50;1.00;;;;;;6208932;23;20562;-89
2023/04/30 20:15:30;;;;;;;7.30;3.70;;;7.70;1.00;;;;;;6208531;23;20169;-88
2023/04/30 20:17:57;;;;;;;8.10;4.43;;;7.70;1.00;;;;;;6207905;23;20583;-89
2023/04/30 20:20:37;;;;;;;7.77;5.17;;;7.70;1.00;;;;;;6208319;23;20201;-89
2023/04/30 20:23:12;;;;;;;6.53;4.23;;;7.60;1.00;;;;;;6208630;23;20185;-90
2023/04/30 20:25:41;;;;;;;5.87;3.73;;;7.50;1.00;;;;;;6208306;23;20162;-89
2023/04/30 20:28:07;;;;;;;5.67;3.90;;;7.40;1.00;;;;;;6209469;23;20158;-89
2023/04/30 20:30:33;;;;;;;5.17;3.60;;;7.40;1.00;;;;;;6207814;23;20163;-89